createdAt,value
2017-11-04T00:01:20.750Z,34.87
2017-11-04T00:03:48.397Z,36.93
2017-11-04T00:06:16.014Z,36.77
2017-11-04T00:08:43.616Z,35.80
2017-11-04T00:11:11.202Z,39.03
2017-11-04T00:13:39.107Z,38.13
2017-11-04T00:16:06.689Z,39.40
2017-11-04T00:18:35.159Z,39.37
2017-11-04T00:21:03.572Z,37.90
2017-11-04T00:23:31.184Z,38.37
2017-11-04T00:25:58.828Z,37.77
2017-11-04T00:28:26.456Z,36.27
2017-11-04T00:30:54.376Z,36.10
2017-11-04T00:33:21.979Z,37.27
2017-11-04T00:35:49.534Z,40.10
2017-11-04T00:38:17.186Z,41.40
2017-11-04T00:40:44.788Z,41.77
2017-11-04T00:43:12.388Z,40.13
2017-11-04T00:45:40.738Z,43.50
2017-11-04T00:48:08.691Z,43.23
2017-11-04T00:50:36.312Z,43.37
2017-11-04T00:53:04.169Z,42.20
2017-11-04T00:55:32.559Z,41.97
2017-11-04T00:58:00.137Z,37.60
2017-11-04T01:00:28.487Z,40.43
2017-11-04T01:02:56.117Z,36.70
2017-11-04T01:05:24.008Z,39.13
2017-11-04T01:07:52.367Z,43.00
2017-11-04T01:10:19.970Z,43.40
2017-11-04T01:12:48.347Z,40.97
2017-11-04T01:15:16.299Z,41.27
2017-11-04T01:17:44.678Z,40.67
2017-11-04T01:20:12.269Z,43.47
2017-11-04T01:22:40.957Z,43.90
2017-11-04T01:25:08.566Z,43.87
2017-11-04T01:27:37.117Z,46.17
2017-11-04T01:30:04.718Z,47.93
2017-11-04T01:32:33.080Z,51.80
2017-11-04T01:35:00.676Z,52.67
2017-11-04T01:37:28.265Z,50.70
2017-11-04T01:39:56.204Z,53.47
2017-11-04T01:42:23.786Z,49.50
2017-11-04T01:44:51.405Z,51.57
2017-11-04T01:47:19.781Z,49.70
2017-11-04T01:49:47.349Z,45.40
2017-11-04T01:52:14.974Z,48.80
2017-11-04T01:54:42.586Z,49.27
2017-11-04T01:57:10.641Z,45.80
2017-11-04T01:59:38.245Z,44.47
2017-11-04T02:02:05.840Z,48.60
2017-11-04T02:04:34.214Z,47.10
2017-11-04T02:07:02.616Z,52.00
2017-11-04T02:09:30.234Z,51.30
2017-11-04T02:11:57.821Z,50.50
2017-11-04T02:14:26.442Z,53.13
2017-11-04T02:16:54.137Z,52.00
2017-11-04T02:19:21.741Z,49.07
2017-11-04T02:21:50.094Z,47.63
2017-11-04T02:24:17.699Z,50.97
2017-11-04T02:26:45.333Z,48.03
2017-11-04T02:29:13.678Z,49.50
2017-11-04T02:31:41.596Z,47.30
2017-11-04T02:34:09.311Z,46.07
2017-11-04T02:36:36.951Z,43.30
2017-11-04T02:39:04.575Z,44.43
2017-11-04T02:41:33.071Z,41.33
2017-11-04T02:44:00.706Z,43.57
2017-11-04T02:46:29.216Z,44.03
2017-11-04T02:48:57.097Z,46.50
2017-11-04T02:51:24.683Z,43.70
2017-11-04T02:53:52.266Z,45.23
2017-11-04T02:56:20.643Z,43.63
2017-11-04T02:58:48.988Z,41.30
2017-11-04T03:01:16.630Z,45.57
2017-11-04T03:03:44.287Z,44.63
2017-11-04T03:06:12.166Z,44.90
2017-11-04T03:08:39.743Z,42.20
2017-11-04T03:11:07.337Z,40.20
2017-11-04T03:13:34.986Z,39.63
2017-11-04T03:16:02.572Z,40.40
2017-11-04T03:18:30.179Z,36.43
2017-11-04T03:20:57.781Z,38.50
2017-11-04T03:23:26.400Z,41.40
2017-11-04T03:25:53.989Z,38.23
2017-11-04T03:28:21.569Z,38.23
2017-11-04T03:30:49.179Z,37.73
2017-11-04T03:33:16.981Z,39.53
2017-11-04T03:35:44.600Z,38.10
2017-11-04T03:38:12.181Z,35.00
2017-11-04T03:40:40.043Z,36.33
2017-11-04T03:43:07.624Z,33.10
2017-11-04T03:45:35.206Z,37.10
2017-11-04T03:48:03.584Z,35.10
2017-11-04T03:50:31.941Z,35.97
2017-11-04T03:52:59.714Z,37.63
2017-11-04T03:55:28.073Z,35.53
2017-11-04T03:57:55.943Z,36.87
2017-11-04T04:00:23.576Z,39.47
2017-11-04T04:02:51.174Z,36.07
2017-11-04T04:05:18.799Z,36.23
2017-11-04T04:07:46.385Z,37.03
2017-11-04T04:10:14.114Z,38.10
2017-11-04T04:12:41.674Z,35.87
2017-11-04T04:15:09.547Z,38.57
2017-11-04T04:17:37.140Z,36.67
2017-11-04T04:20:05.549Z,38.77
2017-11-04T04:22:33.159Z,38.40
2017-11-04T04:25:00.750Z,37.83
2017-11-04T04:27:28.357Z,36.00
2017-11-04T04:29:56.149Z,37.47
2017-11-04T04:32:24.196Z,37.90
2017-11-04T04:34:51.773Z,35.90
2017-11-04T04:37:19.362Z,41.50
2017-11-04T04:39:46.953Z,38.67
2017-11-04T04:42:14.676Z,39.13
2017-11-04T04:44:42.286Z,40.10
2017-11-04T04:47:09.946Z,39.03
2017-11-04T04:49:37.804Z,36.80
2017-11-04T04:52:05.377Z,38.50
2017-11-04T04:54:33.734Z,36.07
2017-11-04T04:57:01.353Z,38.73
2017-11-04T04:59:28.939Z,38.43
2017-11-04T05:01:57.305Z,37.80
2017-11-04T05:04:25.661Z,37.37
2017-11-04T05:06:53.574Z,38.97
2017-11-04T05:09:21.146Z,37.83
2017-11-04T05:11:48.732Z,37.93
2017-11-04T05:14:16.337Z,37.83
2017-11-04T05:16:44.686Z,37.43
2017-11-04T05:19:12.300Z,38.20
2017-11-04T05:21:39.906Z,39.00
2017-11-04T05:24:07.767Z,38.60
2017-11-04T05:26:35.335Z,36.77
2017-11-04T05:29:02.915Z,36.80
2017-11-04T05:31:31.306Z,39.83
2017-11-04T05:33:59.650Z,39.77
2017-11-04T05:36:27.250Z,36.93
2017-11-04T05:38:54.810Z,36.33
2017-11-04T05:41:22.663Z,36.60
2017-11-04T05:43:50.251Z,39.53
2017-11-04T05:46:18.142Z,40.87
2017-11-04T05:48:45.742Z,39.67
2017-11-04T05:51:13.345Z,42.20
2017-11-04T05:53:40.960Z,41.07
2017-11-04T05:56:12.183Z,40.50
2017-11-04T05:58:40.055Z,41.00
2017-11-04T06:01:07.666Z,37.33
2017-11-04T06:03:35.234Z,38.30
2017-11-04T06:06:02.926Z,36.37
2017-11-04T06:08:30.556Z,38.27
2017-11-04T06:10:58.250Z,37.47
2017-11-04T06:13:25.840Z,37.30
2017-11-04T06:15:54.457Z,38.40
2017-11-04T06:18:22.047Z,37.07
2017-11-04T06:20:49.665Z,37.00
2017-11-04T06:23:17.293Z,36.63
2017-11-04T06:25:44.870Z,37.63
2017-11-04T06:28:12.783Z,37.97
2017-11-04T06:30:40.365Z,35.83
2017-11-04T06:33:07.949Z,37.00
2017-11-04T06:35:36.321Z,38.37
2017-11-04T06:38:04.678Z,40.07
2017-11-04T06:40:32.296Z,37.73
2017-11-04T06:42:59.888Z,37.40
2017-11-04T06:45:27.755Z,36.73
2017-11-04T06:47:55.396Z,37.13
2017-11-04T06:50:22.976Z,37.70
2017-11-04T06:52:50.580Z,37.40
2017-11-04T06:55:18.924Z,40.10
2017-11-04T06:57:46.542Z,43.23
2017-11-04T07:00:14.121Z,41.73
2017-11-04T07:02:41.986Z,44.13
2017-11-04T07:05:09.574Z,43.27
2017-11-04T07:07:37.388Z,43.17
2017-11-04T07:10:05.784Z,38.43
2017-11-04T07:12:33.355Z,38.43
2017-11-04T07:15:00.971Z,37.43
2017-11-04T07:17:29.397Z,37.80
2017-11-04T07:19:57.244Z,38.17
2017-11-04T07:22:24.847Z,35.60
2017-11-04T07:24:52.434Z,33.43
2017-11-04T07:27:20.803Z,37.17
2017-11-04T07:29:49.160Z,37.50
2017-11-04T07:32:16.769Z,36.90
2017-11-04T07:34:44.345Z,38.17
2017-11-04T07:37:12.192Z,35.60
2017-11-04T07:39:39.818Z,35.00
2017-11-04T07:42:07.487Z,34.90
2017-11-04T07:44:35.191Z,35.50
2017-11-04T07:47:02.938Z,37.63
2017-11-04T07:49:30.569Z,36.63
2017-11-04T07:51:58.913Z,35.10
2017-11-04T07:54:26.762Z,35.13
2017-11-04T07:56:54.364Z,33.43
2017-11-04T07:59:21.949Z,35.27
2017-11-04T08:01:49.570Z,33.70
2017-11-04T08:04:27.052Z,33.70
2017-11-04T08:06:54.704Z,33.80
2017-11-04T08:09:22.311Z,34.20
2017-11-04T08:11:50.186Z,33.47
2017-11-04T08:14:18.535Z,33.23
2017-11-04T08:16:46.143Z,33.03
2017-11-04T08:19:13.766Z,31.97
2017-11-04T08:21:41.342Z,31.93
2017-11-04T08:24:09.981Z,32.40
2017-11-04T08:26:37.577Z,31.37
2017-11-04T08:29:05.936Z,31.40
2017-11-04T08:31:33.579Z,30.00
2017-11-04T08:34:01.164Z,28.80
2017-11-04T08:36:38.748Z,26.73
2017-11-04T08:39:06.330Z,24.83
2017-11-04T08:41:35.179Z,25.07
2017-11-04T08:44:03.607Z,25.30
2017-11-04T08:46:31.233Z,24.80
2017-11-04T08:48:58.821Z,22.53
2017-11-04T08:51:27.163Z,22.90
2017-11-04T08:53:54.763Z,25.23
2017-11-04T08:56:23.165Z,23.90
2017-11-04T08:58:51.409Z,22.87
2017-11-04T09:01:19.759Z,24.90
2017-11-04T09:03:51.450Z,26.20
2017-11-04T09:06:19.816Z,27.00
2017-11-04T09:08:47.405Z,26.30
2017-11-04T09:11:15.038Z,27.47
2017-11-04T09:13:43.446Z,28.97
2017-11-04T09:16:11.337Z,27.73
2017-11-04T09:18:39.114Z,27.40
2017-11-04T09:21:06.705Z,27.00
2017-11-04T09:23:35.074Z,26.80
2017-11-04T09:26:02.669Z,27.40
2017-11-04T09:28:30.425Z,25.10
2017-11-04T09:30:58.067Z,25.20
2017-11-04T09:33:26.452Z,24.77
2017-11-04T09:35:54.916Z,25.70
2017-11-04T09:38:23.260Z,24.43
2017-11-04T09:40:50.975Z,24.33
2017-11-04T09:43:19.367Z,23.63
2017-11-04T09:45:47.171Z,24.97
2017-11-04T09:48:14.771Z,23.63
2017-11-04T09:50:43.163Z,23.47
2017-11-04T09:53:10.786Z,24.83
2017-11-04T09:55:39.987Z,22.30
2017-11-04T09:58:07.955Z,22.90
2017-11-04T10:00:35.543Z,23.17
2017-11-04T10:03:03.884Z,23.27
2017-11-04T10:05:31.629Z,23.23
2017-11-04T10:07:59.210Z,22.77
2017-11-04T10:10:26.872Z,23.73
2017-11-04T10:12:54.491Z,22.20
2017-11-04T10:15:22.399Z,20.03
2017-11-04T10:17:50.014Z,19.30
2017-11-04T10:20:17.622Z,20.47
2017-11-04T10:22:45.275Z,18.60
2017-11-04T10:25:12.860Z,18.97
2017-11-04T10:27:40.512Z,19.40
2017-11-04T10:30:08.130Z,19.60
2017-11-04T10:32:36.043Z,19.67
2017-11-04T10:35:04.595Z,17.70
2017-11-04T10:37:32.436Z,17.07
2017-11-04T10:40:00.065Z,18.07
2017-11-04T10:42:40.438Z,17.63
2017-11-04T10:45:08.051Z,17.27
2017-11-04T10:47:35.651Z,17.77
2017-11-04T10:50:04.277Z,18.73
2017-11-04T10:52:31.891Z,18.20
2017-11-04T10:55:00.271Z,17.93
2017-11-04T10:57:28.633Z,16.83
2017-11-04T10:59:56.238Z,16.60
2017-11-04T11:02:24.259Z,16.97
2017-11-04T11:04:51.826Z,18.33
2017-11-04T11:07:19.412Z,19.33
2017-11-04T11:09:47.100Z,18.13
2017-11-04T11:12:14.715Z,18.30
2017-11-04T11:14:43.467Z,18.93
2017-11-04T11:17:11.050Z,18.57
2017-11-04T11:19:38.674Z,18.10
2017-11-04T11:22:06.475Z,19.23
2017-11-04T11:24:34.134Z,19.17
2017-11-04T11:27:02.785Z,17.30
2017-11-04T11:29:30.387Z,18.37
2017-11-04T11:31:58.015Z,17.93
2017-11-04T11:34:25.666Z,18.47
2017-11-04T11:36:53.260Z,18.97
2017-11-04T11:39:20.998Z,17.60
2017-11-04T11:41:48.598Z,18.70
2017-11-04T11:44:16.198Z,18.90
2017-11-04T11:46:43.863Z,18.97
2017-11-04T11:49:11.453Z,15.90
2017-11-04T11:51:39.092Z,14.67
2017-11-04T11:54:06.862Z,15.50
2017-11-04T11:56:34.514Z,13.97
2017-11-04T11:59:02.135Z,13.60
2017-11-04T12:01:29.718Z,11.87
2017-11-04T12:03:58.379Z,12.57
2017-11-04T12:06:26.794Z,11.53
2017-11-04T12:08:54.433Z,11.67
2017-11-04T12:11:22.042Z,11.23
2017-11-04T12:13:49.653Z,12.80
2017-11-04T12:16:17.283Z,11.23
2017-11-04T12:18:45.636Z,11.10
2017-11-04T12:21:13.224Z,11.83
2017-11-04T12:23:40.834Z,11.70
2017-11-04T12:26:08.443Z,12.03
2017-11-04T12:28:36.822Z,11.70
2017-11-04T12:31:04.465Z,11.23
2017-11-04T12:33:32.291Z,10.17
2017-11-04T12:35:59.893Z,12.03
2017-11-04T12:38:28.286Z,11.30
2017-11-04T12:40:56.678Z,10.60
2017-11-04T12:43:25.077Z,10.33
2017-11-04T12:45:52.675Z,8.87
2017-11-04T12:48:20.491Z,8.23
2017-11-04T12:50:48.097Z,8.73
2017-11-04T12:53:15.692Z,9.13
2017-11-04T12:55:44.237Z,9.33
2017-11-04T12:58:12.106Z,9.10
2017-11-04T13:00:40.088Z,9.07
2017-11-04T13:03:07.680Z,8.87
2017-11-04T13:05:35.254Z,8.50
2017-11-04T13:08:02.942Z,8.00
2017-11-04T13:10:30.608Z,8.70
2017-11-04T13:12:58.202Z,8.77
2017-11-04T13:15:25.791Z,8.17
2017-11-04T13:17:53.454Z,7.93
2017-11-04T13:20:21.054Z,8.43
2017-11-04T13:22:48.673Z,8.37
2017-11-04T13:25:16.268Z,8.90
2017-11-04T13:27:43.859Z,9.00
2017-11-04T13:30:11.512Z,8.27
2017-11-04T13:32:39.103Z,8.33
2017-11-04T13:35:07.482Z,8.50
2017-11-04T13:37:35.167Z,8.53
2017-11-04T13:40:03.082Z,9.20
2017-11-04T13:42:31.374Z,9.83
2017-11-04T13:44:59.720Z,8.57
2017-11-04T13:47:27.370Z,8.37
2017-11-04T13:49:54.934Z,9.10
2017-11-04T13:52:22.532Z,8.13
2017-11-04T13:54:50.909Z,8.23
2017-11-04T13:57:19.671Z,8.70
2017-11-04T13:59:47.298Z,10.53
2017-11-04T14:02:14.936Z,10.20
2017-11-04T14:04:42.545Z,11.03
2017-11-04T14:07:10.278Z,9.40
2017-11-04T14:09:37.878Z,9.93
2017-11-04T14:12:05.452Z,10.30
2017-11-04T14:14:34.095Z,10.07
2017-11-04T14:17:01.682Z,9.67
2017-11-04T14:19:29.281Z,9.60
2017-11-04T14:21:56.885Z,8.20
2017-11-04T14:24:24.458Z,8.60
2017-11-04T14:26:52.403Z,9.60
2017-11-04T14:29:19.978Z,8.97
2017-11-04T14:31:47.562Z,9.13
2017-11-04T14:34:15.168Z,8.60
2017-11-04T14:36:42.728Z,9.00
2017-11-04T14:39:10.599Z,8.97
2017-11-04T14:41:38.994Z,8.73
2017-11-04T14:44:06.678Z,9.50
2017-11-04T14:46:34.345Z,9.30
2017-11-04T14:49:01.942Z,9.33
2017-11-04T14:51:29.842Z,9.23
2017-11-04T14:53:57.489Z,9.53
2017-11-04T14:56:25.102Z,10.90
2017-11-04T14:58:53.515Z,10.17
2017-11-04T15:01:21.098Z,8.63
2017-11-04T15:03:49.078Z,16.60
2017-11-04T15:06:16.664Z,8.70
2017-11-04T15:08:44.275Z,9.90
2017-11-04T15:11:11.901Z,10.50
2017-11-04T15:13:40.310Z,9.20
2017-11-04T15:16:07.903Z,9.47
2017-11-04T15:18:35.453Z,10.97
2017-11-04T15:21:03.007Z,11.30
2017-11-04T15:23:30.857Z,12.30
2017-11-04T15:25:58.459Z,10.90
2017-11-04T15:28:26.066Z,10.63
2017-11-04T15:30:53.651Z,10.67
2017-11-04T15:33:21.326Z,10.33
2017-11-04T15:35:48.943Z,10.70
2017-11-04T15:38:16.544Z,10.03
2017-11-04T15:40:44.214Z,11.13
2017-11-04T15:43:11.809Z,10.73
2017-11-04T15:45:40.166Z,11.53
2017-11-04T15:48:08.568Z,11.40
2017-11-04T15:50:36.943Z,10.80
2017-11-04T15:53:05.452Z,11.10
2017-11-04T15:55:33.018Z,11.70
2017-11-04T15:58:01.007Z,11.30
2017-11-04T16:00:28.558Z,9.53
2017-11-04T16:02:56.153Z,11.33
2017-11-04T16:05:23.778Z,9.37
2017-11-04T16:07:51.420Z,9.10
2017-11-04T16:10:19.063Z,8.63
2017-11-04T16:12:46.682Z,9.13
2017-11-04T16:15:14.649Z,9.30
2017-11-04T16:17:42.248Z,8.53
2017-11-04T16:20:09.905Z,9.90
2017-11-04T16:22:38.282Z,10.07
2017-11-04T16:25:06.649Z,9.53
2017-11-04T16:27:35.051Z,9.60
2017-11-04T16:30:02.676Z,9.37
2017-11-04T16:32:30.534Z,9.13
2017-11-04T16:34:58.131Z,10.43
2017-11-04T16:37:25.756Z,9.57
2017-11-04T16:39:53.388Z,9.97
2017-11-04T16:42:20.988Z,10.50
2017-11-04T16:44:49.373Z,10.90
2017-11-04T16:47:17.742Z,10.33
2017-11-04T16:49:45.651Z,12.30
2017-11-04T16:52:13.268Z,10.50
2017-11-04T16:54:41.679Z,10.67
2017-11-04T16:57:09.283Z,12.13
2017-11-04T16:59:36.929Z,11.20
2017-11-04T17:02:04.536Z,11.40
2017-11-04T17:04:32.939Z,12.43
2017-11-04T17:07:00.863Z,10.80
2017-11-04T17:09:28.445Z,10.53
2017-11-04T17:11:56.810Z,11.20
2017-11-04T17:14:24.428Z,10.60
2017-11-04T17:16:52.012Z,10.20
2017-11-04T17:19:19.621Z,11.03
2017-11-04T17:21:47.222Z,11.43
2017-11-04T17:24:15.226Z,11.83
2017-11-04T17:26:42.792Z,11.03
2017-11-04T17:29:11.139Z,11.00
2017-11-04T17:31:38.748Z,11.47
2017-11-04T17:34:07.089Z,9.80
2017-11-04T17:36:35.051Z,11.30
2017-11-04T17:39:02.687Z,10.87
2017-11-04T17:41:30.329Z,10.67
2017-11-04T17:43:57.927Z,11.97
2017-11-04T17:46:25.506Z,11.90
2017-11-04T17:48:53.456Z,10.83
2017-11-04T17:51:21.046Z,10.77
2017-11-04T17:53:49.391Z,10.43
2017-11-04T17:56:17.042Z,10.80
2017-11-04T17:58:44.823Z,10.53
2017-11-04T18:01:12.885Z,11.63
2017-11-04T18:03:40.495Z,11.27
2017-11-04T18:06:08.115Z,11.40
2017-11-04T18:08:35.790Z,12.03
2017-11-04T18:11:03.388Z,11.87
2017-11-04T18:13:31.426Z,11.77
2017-11-04T18:15:59.804Z,12.20
2017-11-04T18:18:27.413Z,12.30
2017-11-04T18:20:55.050Z,13.50
2017-11-04T18:23:22.674Z,12.60
2017-11-04T18:25:50.622Z,13.00
2017-11-04T18:28:18.306Z,14.17
2017-11-04T18:30:45.941Z,14.90
2017-11-04T18:33:13.645Z,14.10
2017-11-04T18:35:42.019Z,14.70
2017-11-04T18:38:10.735Z,15.43
2017-11-04T18:40:38.358Z,15.50
2017-11-04T18:43:05.949Z,15.70
2017-11-04T18:45:33.560Z,14.20
2017-11-04T18:48:01.216Z,14.00
2017-11-04T18:50:29.258Z,14.70
2017-11-04T18:52:56.861Z,15.00
2017-11-04T18:55:24.461Z,15.13
2017-11-04T18:57:52.158Z,15.67
2017-11-04T19:00:19.770Z,16.10
2017-11-04T19:02:48.531Z,16.23
2017-11-04T19:05:16.170Z,14.23
2017-11-04T19:07:43.843Z,15.90
2017-11-04T19:10:11.468Z,15.33
2017-11-04T19:12:39.076Z,15.00
2017-11-04T19:15:06.721Z,15.73
2017-11-04T19:17:34.332Z,15.57
2017-11-04T19:20:02.352Z,16.10
2017-11-04T19:22:29.961Z,17.60
2017-11-04T19:24:57.672Z,14.70
2017-11-04T19:27:25.413Z,14.20
2017-11-04T19:29:53.007Z,14.20
2017-11-04T19:32:20.581Z,13.23
2017-11-04T19:34:48.356Z,15.43
2017-11-04T19:37:17.054Z,15.70
2017-11-04T19:39:44.641Z,13.77
2017-11-04T19:42:12.227Z,15.00
2017-11-04T19:44:39.905Z,14.40
2017-11-04T19:47:07.495Z,13.97
2017-11-04T19:49:36.247Z,15.60
2017-11-04T19:52:03.854Z,16.33
2017-11-04T19:54:31.641Z,18.27
2017-11-04T19:56:59.271Z,16.63
2017-11-04T19:59:26.875Z,16.13
2017-11-04T20:01:54.539Z,17.00
2017-11-04T20:04:22.136Z,16.23
2017-11-04T20:06:50.909Z,18.23
2017-11-04T20:09:18.536Z,17.53
2017-11-04T20:11:46.266Z,17.40
2017-11-04T20:14:13.917Z,17.20
2017-11-04T20:16:42.489Z,17.63
2017-11-04T20:19:11.888Z,17.73
2017-11-04T20:21:39.511Z,16.47
2017-11-04T20:24:07.378Z,17.53
2017-11-04T20:26:34.951Z,17.27
2017-11-04T20:29:02.522Z,18.30
2017-11-04T20:31:30.940Z,18.70
2017-11-04T20:33:58.659Z,18.07
2017-11-04T20:36:26.474Z,19.57
2017-11-04T20:38:54.073Z,17.90
2017-11-04T20:41:22.074Z,18.33
2017-11-04T20:43:50.459Z,16.43
2017-11-04T20:46:18.145Z,18.97
2017-11-04T20:48:45.763Z,26.30
2017-11-04T20:51:13.372Z,21.47
2017-11-04T20:53:40.950Z,19.63
2017-11-04T20:56:08.549Z,18.53
2017-11-04T20:58:36.609Z,19.67
2017-11-04T21:01:04.199Z,20.70
2017-11-04T21:03:31.885Z,21.30
2017-11-04T21:05:59.613Z,20.73
2017-11-04T21:08:27.961Z,21.40
2017-11-04T21:10:55.567Z,20.20
2017-11-04T21:13:23.247Z,22.23
2017-11-04T21:15:51.140Z,22.30
2017-11-04T21:18:18.732Z,25.70
2017-11-04T21:20:47.112Z,23.70
2017-11-04T21:23:15.513Z,21.50
2017-11-04T21:25:43.925Z,22.70
2017-11-04T21:28:11.558Z,20.50
2017-11-04T21:30:39.152Z,20.40
2017-11-04T21:33:07.084Z,20.80
2017-11-04T21:35:34.705Z,21.50
2017-11-04T21:38:02.312Z,22.17
2017-11-04T21:40:29.999Z,21.53
2017-11-04T21:42:57.649Z,24.40
2017-11-04T21:45:25.280Z,23.87
2017-11-04T21:47:52.916Z,23.80
2017-11-04T21:50:21.512Z,24.43
2017-11-04T21:52:49.837Z,25.37
2017-11-04T21:55:17.455Z,25.70
2017-11-04T21:57:45.865Z,22.37
2017-11-04T22:00:13.423Z,22.77
2017-11-04T22:02:41.082Z,23.60
2017-11-04T22:05:08.688Z,22.90
2017-11-04T22:07:37.366Z,22.10
2017-11-04T22:10:05.075Z,24.60
2017-11-04T22:12:33.516Z,23.70
2017-11-04T22:15:01.915Z,25.87
2017-11-04T22:17:30.290Z,24.47
2017-11-04T22:19:58.720Z,26.53
2017-11-04T22:22:26.304Z,27.70
2017-11-04T22:24:54.166Z,28.50
2017-11-04T22:27:21.774Z,26.40
2017-11-04T22:29:49.377Z,24.97
2017-11-04T22:32:16.978Z,24.40
2017-11-04T22:34:45.372Z,23.40
2017-11-04T22:37:13.037Z,24.50
2017-11-04T22:39:40.664Z,26.00
2017-11-04T22:42:08.799Z,23.67
2017-11-04T22:44:36.451Z,25.97
2017-11-04T22:47:04.100Z,25.43
2017-11-04T22:49:31.722Z,23.00
2017-11-04T22:52:00.139Z,24.80
2017-11-04T22:54:28.143Z,23.33
2017-11-04T22:56:55.719Z,25.67
2017-11-04T22:59:23.349Z,26.80
2017-11-04T23:01:50.970Z,25.60
2017-11-04T23:04:18.579Z,25.90
2017-11-04T23:06:46.669Z,30.40
2017-11-04T23:09:14.245Z,28.73
2017-11-04T23:11:42.625Z,26.27
2017-11-04T23:14:11.077Z,25.00
2017-11-04T23:16:38.672Z,25.90
2017-11-04T23:19:06.835Z,23.33
2017-11-04T23:21:35.215Z,24.73
2017-11-04T23:24:03.548Z,23.93
2017-11-04T23:26:31.139Z,23.43
2017-11-04T23:28:58.761Z,23.60
2017-11-04T23:31:26.746Z,23.30
2017-11-04T23:33:54.330Z,20.90
2017-11-04T23:36:21.914Z,21.43
2017-11-04T23:38:49.583Z,23.47
2017-11-04T23:41:17.154Z,20.87
2017-11-04T23:43:45.057Z,22.20
2017-11-04T23:46:12.655Z,21.60
2017-11-04T23:48:40.272Z,21.53
2017-11-04T23:51:07.883Z,22.87
2017-11-04T23:53:35.474Z,22.53
2017-11-04T23:56:03.361Z,23.33
2017-11-04T23:58:30.974Z,24.27
